Time;durP1;ratioP1;P1;durP2;ratioP2;P2;SDS_P1;SDS_P2;PMS_P1;PMS_P2;Temp;Humidity;BMP_temperature;BMP_pressure;BME280_temperature;BME280_humidity;BME280_pressure;Samples;Min_cycle;Max_cycle;Signal;HPM_P1;HPM_P2
2022/08/13 04:46:20;;;;;;;0.88;0.50;;;24.20;51.30;;;;;;5087182;27;20383;-73
2022/08/13 04:48:47;;;;;;;1.80;0.52;;;23.30;49.50;;;;;;5087768;28;20753;-74
2022/08/13 04:51:14;;;;;;;1.60;0.40;;;23.20;51.00;;;;;;5083613;28;20417;-73
2022/08/13 04:53:42;;;;;;;0.60;0.47;;;21.80;50.70;;;;;;5086991;28;20893;-74
2022/08/13 04:56:09;;;;;;;0.30;0.30;;;20.60;53.50;;;;;;5067467;28;20815;-79
2022/08/13 04:58:36;;;;;;;0.52;0.40;;;19.70;55.50;;;;;;5063953;28;20793;-75
2022/08/13 05:01:06;;;;;;;0.55;0.50;;;19.30;58.60;;;;;;5065877;28;20383;-74
2022/08/13 05:03:33;;;;;;;1.50;0.50;;;19.00;58.20;;;;;;5069912;28;20878;-74
2022/08/13 05:06:00;;;;;;;1.15;0.40;;;18.70;58.20;;;;;;5078017;28;20411;-73
2022/08/13 05:08:31;;;;;;;1.35;0.43;;;18.40;57.80;;;;;;5066413;28;20452;-74
2022/08/13 05:10:59;;;;;;;1.63;0.50;;;18.30;60.20;;;;;;5070433;28;20412;-76
2022/08/13 05:13:29;;;;;;;1.08;0.50;;;18.10;59.50;;;;;;5077926;28;20387;-75
2022/08/13 05:15:59;;;;;;;0.57;0.45;;;18.10;60.80;;;;;;5070184;28;20467;-74
2022/08/13 05:18:29;;;;;;;0.90;0.50;;;17.90;60.30;;;;;;5070065;28;20386;-75
2022/08/13 05:20:59;;;;;;;1.00;0.40;;;18.30;61.30;;;;;;5066583;28;20374;-74
2022/08/13 05:23:27;;;;;;;0.50;0.40;;;19.10;59.00;;;;;;5078673;28;20381;-74
2022/08/13 05:25:54;;;;;;;0.30;0.30;;;18.90;58.60;;;;;;5071196;28;20435;-75
2022/08/13 05:28:22;;;;;;;1.00;0.50;;;18.60;60.50;;;;;;5071031;28;20387;-74
2022/08/13 05:30:49;;;;;;;0.52;0.35;;;18.30;60.00;;;;;;5065495;28;20387;-74
2022/08/13 05:33:22;;;;;;;0.73;0.35;;;17.90;61.60;;;;;;5067659;28;20467;-73
2022/08/13 05:35:52;;;;;;;0.65;0.43;;;17.60;61.30;;;;;;5069721;28;20402;-74
2022/08/13 05:38:23;;;;;;;0.93;0.40;;;17.40;63.20;;;;;;5081340;28;20381;-74
2022/08/13 05:40:52;;;;;;;0.73;0.40;;;17.30;63.60;;;;;;5080248;28;20418;-75
2022/08/13 05:43:21;;;;;;;0.73;0.40;;;17.20;63.20;;;;;;5070171;28;21068;-75
2022/08/13 05:45:54;;;;;;;0.60;0.50;;;17.30;62.80;;;;;;5068270;28;20414;-75
2022/08/13 05:48:22;;;;;;;3.90;2.25;;;17.60;65.40;;;;;;5064019;28;20386;-75
2022/08/13 05:50:49;;;;;;;6.82;5.70;;;17.90;63.80;;;;;;5085817;28;20402;-74
2022/08/13 05:53:17;;;;;;;0.95;0.85;;;18.10;63.10;;;;;;5068543;28;20422;-76
2022/08/13 05:55:44;;;;;;;0.98;0.68;;;17.90;62.30;;;;;;5080963;28;20374;-77
2022/08/13 05:58:12;;;;;;;1.50;0.60;;;17.70;63.90;;;;;;5060130;28;20417;-76
2022/08/13 06:03:27;;;;;;;0.80;0.50;;;17.30;62.40;;;;;;5051913;28;20398;-76
2022/08/13 06:05:58;;;;;;;2.13;1.93;;;17.10;61.30;;;;;;5057422;28;20412;-76
2022/08/13 06:08:34;;;;;;;2.70;2.50;;;17.10;60.90;;;;;;5058943;28;20387;-76
2022/08/13 06:11:04;;;;;;;2.50;2.30;;;17.00;60.50;;;;;;5061990;28;20526;-73
2022/08/13 06:13:33;;;;;;;2.65;1.30;;;16.80;60.60;;;;;;5065831;28;20398;-76
2022/08/13 06:16:01;;;;;;;0.70;0.50;;;16.80;62.60;;;;;;5062631;28;20440;-76
2022/08/13 06:18:34;;;;;;;0.50;0.50;;;16.70;61.70;;;;;;5052978;28;21219;-74
2022/08/13 06:21:04;;;;;;;1.30;0.50;;;16.80;63.10;;;;;;5067123;28;20385;-76
2022/08/13 06:23:37;;;;;;;0.60;0.60;;;16.80;61.50;;;;;;5066030;28;20382;-75
2022/08/13 06:26:06;;;;;;;1.98;1.10;;;16.80;62.90;;;;;;5051730;28;20400;-75
2022/08/13 06:28:35;;;;;;;1.25;0.70;;;16.70;63.70;;;;;;5069852;28;20894;-79
2022/08/13 06:31:06;;;;;;;0.65;0.55;;;16.60;63.60;;;;;;5054609;28;20399;-77
2022/08/13 06:33:35;;;;;;;1.23;0.77;;;16.50;64.40;;;;;;5065274;28;20518;-75
2022/08/13 06:36:08;;;;;;;0.80;0.50;;;16.60;65.10;;;;;;5054464;28;20403;-75
2022/08/13 06:38:43;;;;;;;1.13;0.40;;;16.60;64.40;;;;;;5067881;28;20378;-75
2022/08/13 06:41:11;;;;;;;0.80;0.40;;;16.50;64.70;;;;;;5061598;28;20425;-75
2022/08/13 06:43:42;;;;;;;0.77;0.60;;;16.50;66.50;;;;;;5071394;28;20392;-75
2022/08/13 06:46:12;;;;;;;0.88;0.50;;;16.40;66.60;;;;;;5061418;28;20545;-76
2022/08/13 06:48:41;;;;;;;0.95;0.60;;;16.40;66.90;;;;;;5053507;28;20376;-76
2022/08/13 06:51:11;;;;;;;2.10;1.63;;;16.20;66.50;;;;;;5071647;28;20386;-75
2022/08/13 06:53:41;;;;;;;1.40;0.80;;;16.20;67.30;;;;;;5059606;28;20372;-74
2022/08/13 06:56:16;;;;;;;0.75;0.60;;;16.10;67.00;;;;;;5062583;28;20452;-74
2022/08/13 06:58:45;;;;;;;0.90;0.50;;;16.10;67.20;;;;;;5069763;28;20738;-75
2022/08/13 07:01:20;;;;;;;1.52;0.40;;;16.00;66.80;;;;;;5072032;28;20427;-74
2022/08/13 07:03:47;;;;;;;0.57;0.40;;;16.00;65.60;;;;;;5069676;28;20742;-74
2022/08/13 07:06:16;;;;;;;1.60;0.40;;;15.90;66.80;;;;;;5070600;28;20775;-75
2022/08/13 07:08:44;;;;;;;0.52;0.50;;;15.70;66.70;;;;;;5070409;28;20385;-75
2022/08/13 07:11:24;;;;;;;1.50;0.65;;;15.70;68.00;;;;;;5063147;28;20507;-77
2022/08/13 07:14:02;;;;;;;1.95;0.50;;;15.60;68.50;;;;;;5061424;28;20384;-75
2022/08/13 07:16:32;;;;;;;0.85;0.50;;;15.50;68.70;;;;;;5061953;28;20977;-76
2022/08/13 07:19:01;;;;;;;0.65;0.50;;;15.40;69.20;;;;;;5069567;28;20378;-74
2022/08/13 07:21:30;;;;;;;1.05;0.50;;;15.30;68.80;;;;;;5059673;28;20388;-75
2022/08/13 07:24:00;;;;;;;1.42;0.50;;;15.30;68.50;;;;;;5061643;28;20390;-75
2022/08/13 07:26:30;;;;;;;1.40;0.60;;;15.20;69.00;;;;;;5053701;28;20399;-76
2022/08/13 07:28:58;;;;;;;1.45;0.70;;;15.10;70.30;;;;;;5064873;28;20387;-75
2022/08/13 07:31:30;;;;;;;2.70;1.10;;;14.90;71.40;;;;;;5061689;28;20395;-75
2022/08/13 07:34:03;;;;;;;2.20;0.90;;;14.70;72.70;;;;;;5069422;28;20392;-73
2022/08/13 07:36:36;;;;;;;1.00;0.73;;;14.50;74.20;;;;;;5064745;28;20400;-75
2022/08/13 07:39:11;;;;;;;1.70;0.70;;;14.40;75.10;;;;;;5058492;28;20373;-81
2022/08/13 07:41:46;;;;;;;1.25;0.90;;;14.40;75.90;;;;;;5059435;28;20463;-73
2022/08/13 07:44:22;;;;;;;9.13;6.70;;;14.30;75.70;;;;;;5050323;28;20954;-75
2022/08/13 07:46:53;;;;;;;1.33;1.23;;;14.30;75.80;;;;;;5050867;28;20400;-76
2022/08/13 07:49:22;;;;;;;3.22;1.45;;;14.30;75.40;;;;;;5051917;28;20452;-75
2022/08/13 07:51:51;;;;;;;2.58;1.60;;;14.30;75.70;;;;;;5050834;28;20460;-75
2022/08/13 07:54:18;;;;;;;2.10;1.33;;;14.30;75.80;;;;;;5060926;28;20432;-78
2022/08/13 07:56:49;;;;;;;2.17;1.90;;;14.30;75.50;;;;;;5050984;28;20390;-75
2022/08/13 07:59:18;;;;;;;3.45;1.80;;;14.40;75.10;;;;;;5061621;28;20382;-78
2022/08/13 08:01:52;;;;;;;2.65;1.85;;;14.40;76.00;;;;;;5054106;28;20394;-75
2022/08/13 08:04:25;;;;;;;1.77;1.60;;;14.30;75.60;;;;;;5059101;28;20402;-78
2022/08/13 08:06:53;;;;;;;1.73;1.33;;;14.30;76.50;;;;;;5054244;28;20802;-75
2022/08/13 08:09:26;;;;;;;2.20;1.52;;;14.30;76.30;;;;;;5052369;28;20383;-74
2022/08/13 08:14:46;;;;;;;2.38;1.42;;;14.10;77.50;;;;;;5047272;28;20430;-74
2022/08/13 08:17:14;;;;;;;3.95;2.97;;;14.00;77.80;;;;;;5051669;28;20491;-74
2022/08/13 08:19:47;;;;;;;5.20;3.80;;;13.90;78.80;;;;;;5066193;28;20402;-77
2022/08/13 08:22:15;;;;;;;3.37;2.40;;;13.80;79.90;;;;;;5066074;28;20388;-73
2022/08/13 08:24:50;;;;;;;2.55;1.92;;;13.70;80.80;;;;;;5056988;28;21213;-79
2022/08/13 08:27:19;;;;;;;3.20;2.15;;;13.60;82.70;;;;;;5052990;28;20379;-84
2022/08/13 08:29:48;;;;;;;2.88;2.13;;;13.50;84.30;;;;;;5057234;28;20446;-80
2022/08/13 08:32:16;;;;;;;2.80;2.10;;;13.40;85.60;;;;;;5058540;28;20457;-79
2022/08/13 08:34:50;;;;;;;2.70;1.75;;;13.30;86.50;;;;;;5055714;28;21055;-76
2022/08/13 08:43:02;;;;;;;2.10;1.20;;;12.90;91.30;;;;;;5051870;28;20446;-72
2022/08/13 08:45:31;;;;;;;5.00;3.73;;;12.70;92.20;;;;;;5054659;28;20529;-74
2022/08/13 08:48:00;;;;;;;6.47;5.10;;;12.60;93.30;;;;;;5055658;28;20414;-73
2022/08/13 08:50:27;;;;;;;5.43;4.63;;;12.40;94.30;;;;;;5050998;28;20425;-74
2022/08/13 08:55:43;;;;;;;3.20;2.30;;;12.10;97.00;;;;;;5049290;28;20906;-73
2022/08/13 09:00:47;;;;;;;2.35;1.90;;;11.70;99.10;;;;;;5309223;23;20420;-74
2022/08/13 09:05:47;;;;;;;4.18;2.50;;;11.40;99.90;;;;;;4984640;28;20441;-72
2022/08/13 09:08:18;;;;;;;4.18;3.15;;;11.30;99.90;;;;;;4988153;28;20385;-75
2022/08/13 09:10:49;;;;;;;3.20;2.00;;;11.20;99.90;;;;;;4981552;28;20385;-74
2022/08/13 09:13:19;;;;;;;3.17;1.88;;;11.10;99.90;;;;;;4994330;28;20396;-74
2022/08/13 09:15:50;;;;;;;2.22;1.90;;;11.30;99.90;;;;;;4992452;28;20389;-74
2022/08/13 09:18:21;;;;;;;2.33;1.92;;;11.40;99.90;;;;;;4991626;28;20380;-73
2022/08/13 09:20:49;;;;;;;2.03;1.85;;;11.50;99.90;;;;;;4989507;28;20809;-73
2022/08/13 09:23:17;;;;;;;1.98;1.80;;;11.60;99.90;;;;;;4990683;28;20423;-74
2022/08/13 09:25:51;;;;;;;2.90;1.90;;;11.70;99.90;;;;;;4990106;28;20416;-73
2022/08/13 09:28:23;;;;;;;2.08;1.60;;;11.70;99.90;;;;;;4991035;28;20381;-73
2022/08/13 09:30:52;;;;;;;2.03;1.73;;;11.80;99.90;;;;;;4989618;28;20408;-74
2022/08/13 09:33:21;;;;;;;2.00;1.75;;;11.90;99.90;;;;;;4993385;28;20389;-73
2022/08/13 09:35:51;;;;;;;3.53;2.70;;;11.90;99.90;;;;;;4992999;28;20389;-74
2022/08/13 09:38:21;;;;;;;4.53;3.78;;;11.90;99.90;;;;;;4986424;28;20886;-72
2022/08/13 09:41:20;;;;;;;4.20;2.75;;;11.90;99.90;;;;;;4989109;28;20381;-74
2022/08/13 09:43:49;;;;;;;4.05;2.80;;;11.90;99.90;;;;;;4994310;28;20722;-75
2022/08/13 09:46:21;;;;;;;5.65;4.00;;;11.80;99.90;;;;;;4993797;28;20896;-72
2022/08/13 09:48:51;;;;;;;4.40;2.55;;;11.80;99.90;;;;;;4993728;28;20429;-72
2022/08/13 09:51:19;;;;;;;3.90;2.90;;;11.70;99.90;;;;;;4993982;28;20385;-74
2022/08/13 09:53:47;;;;;;;6.50;4.95;;;11.70;99.90;;;;;;4994058;28;20424;-72
2022/08/13 09:56:18;;;;;;;5.00;3.30;;;11.60;99.90;;;;;;4993948;28;20383;-74
2022/08/13 09:58:50;;;;;;;3.80;2.38;;;11.50;99.90;;;;;;4993725;28;20728;-75
2022/08/13 10:01:20;;;;;;;3.88;2.80;;;11.40;99.90;;;;;;4993570;28;20384;-73
2022/08/13 10:03:48;;;;;;;5.07;3.20;;;11.40;99.90;;;;;;4993309;28;20468;-73
2022/08/13 10:06:18;;;;;;;3.95;2.90;;;11.30;99.90;;;;;;4993655;28;20900;-75
2022/08/13 10:08:48;;;;;;;4.25;2.80;;;11.30;99.90;;;;;;4993892;28;20382;-76
2022/08/13 10:11:16;;;;;;;3.17;2.58;;;11.20;99.90;;;;;;4993652;28;20764;-76
2022/08/13 10:13:44;;;;;;;3.28;2.60;;;11.20;99.90;;;;;;4986800;28;20393;-72
2022/08/13 10:16:11;;;;;;;2.40;2.20;;;11.10;99.90;;;;;;4992249;28;20385;-75
2022/08/13 10:18:38;;;;;;;2.90;2.33;;;11.10;99.90;;;;;;4973098;28;20903;-73
2022/08/13 10:21:06;;;;;;;2.75;2.50;;;11.10;99.90;;;;;;4993566;28;20384;-76
2022/08/13 10:23:34;;;;;;;2.47;2.08;;;11.00;99.90;;;;;;4976055;28;20389;-73
2022/08/13 10:26:02;;;;;;;2.05;1.85;;;10.90;99.90;;;;;;4993297;28;20437;-74
2022/08/13 10:28:32;;;;;;;5.30;2.60;;;10.90;99.90;;;;;;4975686;28;20409;-76
2022/08/13 10:31:10;;;;;;;3.47;2.47;;;10.90;99.90;;;;;;4992654;28;20395;-77
2022/08/13 10:33:37;;;;;;;5.85;3.03;;;10.80;99.90;;;;;;4991280;28;20467;-73
2022/08/13 10:36:06;;;;;;;2.55;2.30;;;10.80;99.90;;;;;;4993481;28;20392;-76
2022/08/13 10:38:34;;;;;;;3.53;2.55;;;10.80;99.90;;;;;;4993199;28;20397;-76
2022/08/13 10:41:07;;;;;;;3.83;2.67;;;10.80;99.90;;;;;;4992913;28;20795;-74
2022/08/13 10:43:38;;;;;;;4.70;2.90;;;10.70;99.90;;;;;;4992565;28;20417;-75
2022/08/13 10:46:09;;;;;;;5.10;2.90;;;10.80;99.90;;;;;;4991949;28;20503;-73
2022/08/13 10:48:36;;;;;;;4.75;2.92;;;10.80;99.90;;;;;;4975294;28;21211;-72
2022/08/13 10:51:03;;;;;;;4.63;2.90;;;10.70;99.90;;;;;;4992831;28;20420;-75
2022/08/13 10:56:17;;;;;;;4.20;3.00;;;10.60;99.90;;;;;;4992368;28;20401;-76
2022/08/13 10:58:44;;;;;;;4.40;3.67;;;10.50;99.90;;;;;;4992921;28;20384;-72
2022/08/13 11:01:12;;;;;;;5.03;3.83;;;10.40;99.90;;;;;;4991470;28;20399;-73
2022/08/13 11:03:44;;;;;;;5.22;4.60;;;10.20;99.90;;;;;;4992487;28;20459;-73
2022/08/13 11:06:12;;;;;;;5.65;4.40;;;10.10;99.90;;;;;;4991780;28;20507;-75
2022/08/13 11:08:39;;;;;;;11.30;7.95;;;9.90;99.90;;;;;;4992897;28;20820;-72
2022/08/13 11:11:10;;;;;;;8.87;7.53;;;9.90;99.90;;;;;;4992090;28;20404;-75
2022/08/13 11:13:38;;;;;;;8.45;6.70;;;9.80;99.90;;;;;;4978610;28;20389;-73
2022/08/13 11:18:56;;;;;;;7.43;4.60;;;9.70;99.90;;;;;;4950161;28;20430;-77
2022/08/13 11:21:25;;;;;;;5.57;4.32;;;9.60;99.90;;;;;;4951260;29;20401;-72
2022/08/13 11:23:53;;;;;;;4.65;3.30;;;9.60;99.90;;;;;;4946682;29;20862;-73
2022/08/13 11:26:21;;;;;;;5.35;3.40;;;9.60;99.90;;;;;;4942023;29;20439;-80
2022/08/13 11:28:48;;;;;;;4.78;3.33;;;9.60;99.90;;;;;;4942635;29;20408;-74
2022/08/13 11:31:16;;;;;;;6.43;4.10;;;9.50;99.90;;;;;;4946486;29;20404;-75
2022/08/13 11:33:43;;;;;;;6.47;4.20;;;9.50;99.90;;;;;;4945979;29;20484;-72
2022/08/13 11:36:10;;;;;;;5.53;3.40;;;9.50;99.90;;;;;;4951294;29;20401;-74
2022/08/13 11:38:37;;;;;;;8.45;6.30;;;9.50;99.90;;;;;;4937010;29;20893;-76
2022/08/13 11:41:04;;;;;;;4.47;3.58;;;9.40;99.90;;;;;;4949604;29;20545;-74
2022/08/13 11:43:32;;;;;;;5.00;3.60;;;9.40;99.90;;;;;;4951565;29;20428;-73
2022/08/13 11:45:59;;;;;;;6.30;5.07;;;9.30;99.90;;;;;;4938141;29;20507;-74
2022/08/13 11:48:26;;;;;;;6.80;4.80;;;9.30;99.90;;;;;;4940834;29;20453;-73
2022/08/13 11:50:55;;;;;;;6.10;5.00;;;9.30;99.90;;;;;;4947488;29;20404;-73
2022/08/13 11:53:23;;;;;;;6.72;6.03;;;9.30;99.90;;;;;;4940125;28;20396;-75
2022/08/13 11:55:51;;;;;;;9.35;7.30;;;9.20;99.90;;;;;;4968807;28;20409;-74
2022/08/13 11:58:18;;;;;;;7.65;6.38;;;9.20;99.90;;;;;;4991945;28;20936;-75
2022/08/13 12:00:45;;;;;;;8.77;6.20;;;9.30;99.90;;;;;;4991042;28;20401;-73
2022/08/13 12:03:13;;;;;;;8.18;5.55;;;9.30;99.90;;;;;;4991069;28;20395;-74
2022/08/13 12:05:40;;;;;;;8.32;5.55;;;9.40;99.90;;;;;;4979062;28;20429;-73
2022/08/13 12:08:19;;;;;;;7.83;5.57;;;9.50;99.90;;;;;;4989661;28;20397;-73
2022/08/13 12:10:50;;;;;;;7.75;5.57;;;9.60;99.90;;;;;;4991072;28;20396;-73
2022/08/13 12:13:17;;;;;;;7.18;5.00;;;9.70;99.90;;;;;;4984214;28;20725;-72
2022/08/13 12:15:44;;;;;;;6.28;4.88;;;9.70;99.90;;;;;;4985330;28;20393;-74
2022/08/13 12:18:16;;;;;;;6.38;4.50;;;9.80;99.90;;;;;;4991698;28;20412;-73
2022/08/13 12:20:43;;;;;;;5.13;4.07;;;9.80;99.90;;;;;;4991554;28;20472;-72
2022/08/13 12:23:11;;;;;;;5.87;4.33;;;9.90;99.90;;;;;;4994563;28;20938;-74
2022/08/13 12:25:38;;;;;;;6.15;4.30;;;9.90;99.90;;;;;;4978443;28;20776;-74
2022/08/13 12:28:28;;;;;;;6.43;4.20;;;9.80;99.90;;;;;;4992906;28;20389;-74
2022/08/13 12:31:07;;;;;;;7.40;4.00;;;9.80;99.90;;;;;;4985716;28;20396;-74
2022/08/13 12:33:36;;;;;;;4.60;3.47;;;9.70;99.90;;;;;;4991310;28;20415;-72
2022/08/13 12:36:04;;;;;;;4.05;3.20;;;9.70;99.90;;;;;;4990833;28;20397;-73
2022/08/13 12:38:31;;;;;;;3.88;3.08;;;9.70;99.90;;;;;;4991368;28;20389;-72
2022/08/13 12:41:00;;;;;;;3.80;2.80;;;9.70;99.90;;;;;;4990737;28;20468;-73
2022/08/13 12:43:28;;;;;;;3.78;3.20;;;9.80;99.90;;;;;;4990269;28;20385;-72
2022/08/13 12:45:55;;;;;;;4.75;3.20;;;9.90;99.90;;;;;;4990328;28;20499;-72
2022/08/13 12:48:22;;;;;;;4.20;3.67;;;10.00;99.90;;;;;;4990611;28;20529;-71
2022/08/13 12:50:50;;;;;;;4.80;3.10;;;10.00;99.90;;;;;;4989570;28;20402;-75
2022/08/13 12:53:18;;;;;;;5.07;3.67;;;10.10;99.90;;;;;;4991319;28;20377;-73
2022/08/13 12:55:45;;;;;;;3.80;3.03;;;10.10;99.90;;;;;;4990734;28;20388;-73
2022/08/13 12:58:24;;;;;;;4.13;2.93;;;10.20;99.90;;;;;;4989856;28;20385;-74
2022/08/13 13:00:59;;;;;;;4.03;2.93;;;10.40;99.90;;;;;;4988167;28;20646;-72
2022/08/13 13:03:26;;;;;;;5.50;2.95;;;10.40;99.90;;;;;;4989713;28;20396;-71
2022/08/13 13:05:55;;;;;;;3.88;2.90;;;10.40;99.90;;;;;;4990575;28;20918;-72
2022/08/13 13:08:33;;;;;;;3.38;2.88;;;10.40;99.90;;;;;;4994098;28;20401;-72
2022/08/13 13:11:06;;;;;;;3.47;2.80;;;10.40;99.90;;;;;;4993521;28;20393;-73
2022/08/13 13:13:35;;;;;;;3.22;2.85;;;10.40;99.90;;;;;;4987974;28;20895;-74
2022/08/13 13:16:04;;;;;;;3.15;2.85;;;10.30;99.90;;;;;;4994359;28;20393;-72
2022/08/13 13:18:32;;;;;;;3.57;2.67;;;10.30;99.90;;;;;;4993740;28;20403;-71
2022/08/13 13:20:59;;;;;;;4.30;2.90;;;10.30;99.90;;;;;;4994357;28;20420;-75
2022/08/13 13:23:28;;;;;;;3.63;3.00;;;10.30;99.90;;;;;;4993788;28;20459;-75
2022/08/13 13:25:57;;;;;;;3.70;2.63;;;10.30;99.90;;;;;;4994086;28;20406;-74
2022/08/13 13:28:27;;;;;;;5.30;2.97;;;10.20;99.90;;;;;;4994281;28;20385;-74
2022/08/13 13:30:54;;;;;;;3.10;2.80;;;10.20;99.90;;;;;;4990149;28;20399;-71
2022/08/13 13:33:23;;;;;;;3.83;2.80;;;10.10;99.90;;;;;;4993628;28;20875;-73
2022/08/13 13:35:57;;;;;;;3.45;2.80;;;10.10;99.90;;;;;;4994091;28;20404;-71
2022/08/13 13:38:26;;;;;;;3.97;3.25;;;10.00;99.90;;;;;;4993942;28;20388;-72
2022/08/13 13:40:54;;;;;;;4.50;3.50;;;9.90;99.90;;;;;;4993152;28;20393;-71
2022/08/13 13:43:26;;;;;;;3.97;2.97;;;9.80;99.90;;;;;;4993671;28;20394;-72
2022/08/13 13:45:55;;;;;;;3.45;2.90;;;9.70;99.90;;;;;;4992977;28;20404;-71
2022/08/13 13:48:33;;;;;;;4.88;2.97;;;9.80;99.90;;;;;;4994137;28;20381;-72
2022/08/13 13:51:02;;;;;;;3.53;2.70;;;9.80;99.90;;;;;;4993724;28;20392;-71
2022/08/13 13:53:33;;;;;;;4.35;3.08;;;9.80;99.90;;;;;;4993976;28;20388;-72
2022/08/13 13:56:02;;;;;;;4.47;2.92;;;9.70;99.90;;;;;;4992803;28;20389;-72
2022/08/13 13:58:29;;;;;;;3.92;3.17;;;9.70;99.90;;;;;;4993724;28;20395;-72
2022/08/13 14:00:56;;;;;;;6.10;4.90;;;9.70;99.90;;;;;;4993558;28;20864;-73
2022/08/13 14:03:28;;;;;;;7.85;5.60;;;9.70;99.90;;;;;;4993136;28;20391;-75
2022/08/13 14:05:59;;;;;;;6.03;4.90;;;9.80;99.90;;;;;;4993722;28;20454;-72
2022/08/13 14:08:28;;;;;;;6.40;5.00;;;9.80;99.90;;;;;;4993500;28;20396;-73
2022/08/13 14:10:58;;;;;;;7.60;4.90;;;9.80;99.90;;;;;;4992448;28;20384;-71
2022/08/13 14:13:26;;;;;;;5.53;4.35;;;9.80;99.90;;;;;;4986929;28;20388;-73
2022/08/13 14:15:54;;;;;;;4.05;3.33;;;9.80;99.90;;;;;;4993642;28;20475;-74
2022/08/13 14:18:21;;;;;;;5.72;2.90;;;9.90;99.90;;;;;;4992942;28;20393;-73
2022/08/13 14:20:54;;;;;;;2.67;2.38;;;10.00;99.90;;;;;;4992747;28;20415;-74
2022/08/13 14:23:23;;;;;;;3.67;2.30;;;10.00;99.90;;;;;;4993250;28;20476;-74
2022/08/13 14:25:51;;;;;;;3.72;2.70;;;10.20;99.90;;;;;;4993108;28;20914;-73
2022/08/13 14:28:18;;;;;;;3.72;2.85;;;10.30;99.90;;;;;;4993214;28;20393;-73
2022/08/13 14:30:49;;;;;;;5.00;2.80;;;10.40;99.90;;;;;;4993416;28;20381;-73
2022/08/13 14:33:17;;;;;;;3.70;2.78;;;10.40;99.90;;;;;;4993719;28;20788;-72
2022/08/13 14:35:47;;;;;;;4.53;2.90;;;10.40;99.90;;;;;;4992649;28;20467;-73
2022/08/13 14:38:15;;;;;;;3.83;2.83;;;10.40;99.90;;;;;;4992235;28;20392;-73
2022/08/13 14:40:43;;;;;;;3.58;3.00;;;10.40;99.90;;;;;;4993076;28;20476;-73
2022/08/13 14:43:10;;;;;;;3.90;2.80;;;10.30;99.90;;;;;;4993003;28;20392;-74
2022/08/13 14:45:47;;;;;;;3.25;2.60;;;10.30;99.90;;;;;;4992608;28;20430;-74
2022/08/13 14:48:19;;;;;;;3.63;2.30;;;10.30;99.90;;;;;;4982254;28;20390;-73
2022/08/13 14:51:04;;;;;;;3.00;2.40;;;10.20;99.90;;;;;;4992570;28;20393;-73
2022/08/13 14:53:31;;;;;;;2.65;2.20;;;10.10;99.90;;;;;;4992634;28;20468;-72
2022/08/13 14:56:00;;;;;;;2.97;2.00;;;10.10;99.90;;;;;;4992389;28;20388;-73
2022/08/13 14:58:30;;;;;;;3.38;2.00;;;10.00;99.90;;;;;;4992404;28;20400;-73
2022/08/13 15:00:59;;;;;;;2.65;2.03;;;10.00;99.90;;;;;;4992499;28;20373;-72
2022/08/13 15:03:28;;;;;;;2.47;1.88;;;10.00;99.90;;;;;;4991773;28;20393;-71
2022/08/13 15:06:00;;;;;;;2.67;1.67;;;9.90;99.90;;;;;;4992365;28;20411;-72
2022/08/13 15:08:30;;;;;;;2.20;1.80;;;9.90;99.90;;;;;;4992301;28;20380;-72
2022/08/13 15:11:00;;;;;;;2.10;1.60;;;9.90;99.90;;;;;;4992610;28;20400;-71
2022/08/13 15:13:27;;;;;;;1.80;1.70;;;9.90;99.90;;;;;;4991120;28;20393;-71
2022/08/13 15:15:54;;;;;;;2.30;1.90;;;9.90;99.90;;;;;;4992583;28;20388;-72
2022/08/13 15:18:23;;;;;;;2.38;1.63;;;10.00;99.90;;;;;;4991983;28;20400;-72
2022/08/13 15:20:52;;;;;;;1.65;1.50;;;9.90;99.90;;;;;;4974724;28;20389;-71
2022/08/13 15:23:20;;;;;;;2.25;1.70;;;10.00;99.90;;;;;;4991365;28;20381;-72
2022/08/13 15:25:50;;;;;;;2.07;1.50;;;10.00;99.90;;;;;;4988935;28;20444;-72
2022/08/13 15:28:18;;;;;;;1.67;1.30;;;10.00;99.90;;;;;;4992472;28;20393;-72
2022/08/13 15:30:48;;;;;;;2.20;1.40;;;10.00;99.90;;;;;;4991278;28;20400;-73
2022/08/13 15:33:19;;;;;;;1.25;1.13;;;9.90;99.90;;;;;;4992142;28;20428;-72
2022/08/13 15:35:51;;;;;;;1.75;1.20;;;9.90;99.90;;;;;;4992015;28;20404;-71
2022/08/13 15:38:24;;;;;;;1.42;1.30;;;9.80;99.90;;;;;;4992266;28;20388;-73
2022/08/13 15:40:52;;;;;;;2.30;1.38;;;9.80;99.90;;;;;;4995799;28;20404;-73
2022/08/13 15:43:24;;;;;;;1.27;1.17;;;9.80;99.90;;;;;;4993768;28;20821;-72
2022/08/13 15:45:55;;;;;;;2.25;1.20;;;9.80;99.90;;;;;;4988734;28;20420;-74
2022/08/13 15:48:27;;;;;;;1.20;1.10;;;9.70;99.90;;;;;;4958931;28;20721;-72
2022/08/13 15:50:56;;;;;;;1.65;1.08;;;9.70;99.90;;;;;;4991227;28;20407;-74
2022/08/13 15:53:29;;;;;;;1.08;1.00;;;9.70;99.90;;;;;;4991401;28;20888;-73
2022/08/13 15:55:57;;;;;;;1.83;1.10;;;9.70;99.90;;;;;;4991682;28;20492;-71
2022/08/13 15:58:26;;;;;;;1.25;1.00;;;9.60;99.90;;;;;;4991042;28;20872;-71
2022/08/13 16:00:55;;;;;;;1.20;0.83;;;9.70;99.90;;;;;;4991240;28;20397;-72
2022/08/13 16:03:27;;;;;;;0.75;0.75;;;9.60;99.90;;;;;;4991389;28;20455;-71
2022/08/13 16:05:55;;;;;;;1.00;0.90;;;9.60;99.90;;;;;;4991605;28;20407;-74
2022/08/13 16:08:23;;;;;;;0.90;0.80;;;9.60;99.90;;;;;;4993741;28;20432;-71
2022/08/13 16:10:50;;;;;;;0.73;0.73;;;9.50;99.90;;;;;;5000871;28;20392;-72
2022/08/13 16:13:17;;;;;;;1.35;0.75;;;9.50;99.90;;;;;;4989759;28;20447;-71
2022/08/13 16:15:45;;;;;;;2.42;0.65;;;9.50;99.90;;;;;;4997693;28;20427;-72
2022/08/13 16:18:13;;;;;;;0.70;0.70;;;9.40;99.90;;;;;;5000631;28;20364;-71
2022/08/13 16:20:42;;;;;;;0.75;0.70;;;9.50;99.90;;;;;;4998121;28;20491;-73
2022/08/13 16:23:13;;;;;;;1.20;0.70;;;9.50;99.90;;;;;;4991115;28;20752;-72
2022/08/13 16:25:44;;;;;;;0.70;0.60;;;9.60;99.90;;;;;;4973755;28;20417;-76
2022/08/13 16:28:11;;;;;;;0.63;0.63;;;9.50;99.90;;;;;;4990998;28;20385;-74
2022/08/13 16:30:42;;;;;;;0.60;0.60;;;9.50;99.90;;;;;;4991050;28;20518;-73
2022/08/13 16:33:11;;;;;;;0.45;0.45;;;9.50;99.90;;;;;;4990363;28;20404;-73
2022/08/13 16:35:40;;;;;;;0.60;0.60;;;9.50;99.90;;;;;;4990871;28;20381;-73
2022/08/13 16:38:12;;;;;;;0.50;0.50;;;9.50;99.90;;;;;;4991084;28;20388;-72
2022/08/13 16:40:52;;;;;;;0.98;0.60;;;9.50;99.90;;;;;;4990768;28;20394;-72
2022/08/13 16:43:22;;;;;;;1.15;0.60;;;9.50;99.90;;;;;;4991194;28;20376;-72
2022/08/13 16:45:51;;;;;;;1.63;0.70;;;9.50;99.90;;;;;;4991019;28;20423;-74
2022/08/13 16:48:24;;;;;;;0.90;0.60;;;9.50;99.90;;;;;;4990795;28;20405;-73
2022/08/13 16:50:51;;;;;;;1.80;0.70;;;9.50;99.90;;;;;;4990523;28;20916;-73
2022/08/13 16:53:19;;;;;;;1.00;0.70;;;9.40;99.90;;;;;;4990670;28;20380;-72
2022/08/13 16:55:46;;;;;;;0.40;0.40;;;9.40;99.90;;;;;;4990672;28;20389;-72
2022/08/13 16:58:13;;;;;;;0.60;0.57;;;9.30;99.90;;;;;;4990956;28;21235;-72
2022/08/13 17:00:41;;;;;;;0.60;0.50;;;9.30;99.90;;;;;;4990782;28;20389;-72
2022/08/13 17:11:35;;;;;;;1.38;0.40;;;9.10;99.90;;;;;;4990430;28;20907;-71
2022/08/13 17:14:06;;;;;;;0.30;0.30;;;9.10;99.90;;;;;;4988069;28;20848;-72
2022/08/13 17:16:34;;;;;;;0.30;0.30;;;9.10;99.90;;;;;;4990739;28;20467;-72
2022/08/13 17:19:03;;;;;;;0.90;0.30;;;9.10;99.90;;;;;;4990651;28;20410;-72
2022/08/13 17:21:32;;;;;;;0.30;0.30;;;9.20;99.90;;;;;;4989852;28;20496;-70
2022/08/13 17:24:08;;;;;;;0.80;0.40;;;9.20;99.90;;;;;;4987642;28;20419;-71
2022/08/13 17:26:36;;;;;;;1.00;0.38;;;9.10;99.90;;;;;;4990767;28;20466;-73
2022/08/13 17:29:05;;;;;;;0.40;0.40;;;9.10;99.90;;;;;;4990495;28;20377;-73
2022/08/13 17:31:36;;;;;;;0.80;0.40;;;9.10;99.90;;;;;;4990528;28;20396;-72
2022/08/13 17:34:09;;;;;;;0.45;0.40;;;9.10;99.90;;;;;;4990341;28;20812;-73
2022/08/13 17:36:37;;;;;;;0.90;0.55;;;9.00;99.90;;;;;;4990558;28;20393;-72
2022/08/13 17:39:05;;;;;;;0.70;0.47;;;9.00;99.90;;;;;;4990368;28;20472;-73
2022/08/13 17:41:34;;;;;;;0.60;0.40;;;9.00;99.90;;;;;;4990398;28;20796;-72
2022/08/13 17:44:04;;;;;;;1.27;0.47;;;9.00;99.90;;;;;;4990008;28;20393;-72
2022/08/13 17:46:36;;;;;;;0.47;0.47;;;8.90;99.90;;;;;;4990509;28;20417;-72
2022/08/13 17:49:04;;;;;;;0.47;0.40;;;9.00;99.90;;;;;;4989223;28;20384;-73
2022/08/13 17:51:31;;;;;;;0.60;0.50;;;9.10;99.90;;;;;;4990690;28;20428;-72
2022/08/13 17:53:59;;;;;;;0.32;0.32;;;9.20;99.90;;;;;;4993497;28;20385;-71
2022/08/13 17:56:26;;;;;;;0.45;0.40;;;9.30;99.90;;;;;;4993794;28;20377;-72
2022/08/13 17:58:54;;;;;;;0.88;0.50;;;9.30;99.90;;;;;;4994014;28;20377;-73
2022/08/13 18:01:23;;;;;;;0.50;0.50;;;9.40;99.90;;;;;;4959104;28;20911;-74
2022/08/13 18:03:52;;;;;;;0.93;0.40;;;9.40;99.90;;;;;;4993581;28;20413;-73
2022/08/13 18:06:19;;;;;;;0.50;0.50;;;9.50;99.90;;;;;;4993451;28;20417;-73
2022/08/13 18:08:47;;;;;;;0.43;0.43;;;9.50;99.90;;;;;;4993628;28;20904;-73
2022/08/13 18:11:14;;;;;;;0.68;0.60;;;9.50;99.90;;;;;;4993434;28;20392;-73
2022/08/13 18:13:41;;;;;;;0.40;0.40;;;9.60;99.90;;;;;;4989629;28;20405;-71
2022/08/13 18:16:09;;;;;;;0.33;0.33;;;9.60;99.90;;;;;;4992847;28;20454;-71
2022/08/13 18:18:36;;;;;;;0.40;0.40;;;9.60;99.90;;;;;;4993382;28;20393;-71
2022/08/13 18:21:03;;;;;;;0.40;0.32;;;9.70;99.90;;;;;;4993382;28;20392;-71